sensor_id;sensor_type;location;lat;lon;timestamp;P1;durP1;ratioP1;P2;durP2;ratioP2
36551;SDS011;22559;54.176;12.102;2022-09-09T00:06:22;28.93;;;17.80;;
36551;SDS011;22559;54.176;12.102;2022-09-09T00:09:00;28.73;;;18.67;;
36551;SDS011;22559;54.176;12.102;2022-09-09T00:14:42;28.20;;;17.37;;
36551;SDS011;22559;54.176;12.102;2022-09-09T00:22:38;24.90;;;17.97;;
36551;SDS011;22559;54.176;12.102;2022-09-09T00:25:12;29.10;;;18.43;;
36551;SDS011;22559;54.176;12.102;2022-09-09T00:27:45;26.00;;;18.57;;
36551;SDS011;22559;54.176;12.102;2022-09-09T00:32:44;26.73;;;19.57;;
36551;SDS011;22559;54.176;12.102;2022-09-09T00:37:35;28.47;;;19.20;;
36551;SDS011;22559;54.176;12.102;2022-09-09T00:40:02;27.67;;;19.27;;
36551;SDS011;22559;54.176;12.102;2022-09-09T00:42:42;28.00;;;18.03;;
36551;SDS011;22559;54.176;12.102;2022-09-09T00:45:19;25.47;;;17.87;;
36551;SDS011;22559;54.176;12.102;2022-09-09T00:48:12;24.07;;;17.23;;
36551;SDS011;22559;54.176;12.102;2022-09-09T00:50:42;24.37;;;17.43;;
36551;SDS011;22559;54.176;12.102;2022-09-09T00:56:36;26.77;;;19.20;;
36551;SDS011;22559;54.176;12.102;2022-09-09T01:01:35;25.47;;;17.17;;
36551;SDS011;22559;54.176;12.102;2022-09-09T01:04:03;27.30;;;17.77;;
36551;SDS011;22559;54.176;12.102;2022-09-09T01:06:33;24.53;;;17.17;;
36551;SDS011;22559;54.176;12.102;2022-09-09T01:14:45;27.90;;;16.83;;
36551;SDS011;22559;54.176;12.102;2022-09-09T01:20:04;23.50;;;16.47;;
36551;SDS011;22559;54.176;12.102;2022-09-09T01:22:37;26.80;;;16.00;;
36551;SDS011;22559;54.176;12.102;2022-09-09T01:27:41;25.50;;;17.57;;
36551;SDS011;22559;54.176;12.102;2022-09-09T01:30:10;28.00;;;18.07;;
36551;SDS011;22559;54.176;12.102;2022-09-09T01:32:45;27.43;;;17.80;;
36551;SDS011;22559;54.176;12.102;2022-09-09T01:35:37;32.23;;;18.63;;
36551;SDS011;22559;54.176;12.102;2022-09-09T01:38:15;28.00;;;17.60;;
36551;SDS011;22559;54.176;12.102;2022-09-09T01:40:42;28.67;;;17.03;;
36551;SDS011;22559;54.176;12.102;2022-09-09T01:43:07;32.07;;;17.23;;
36551;SDS011;22559;54.176;12.102;2022-09-09T01:45:34;25.17;;;16.13;;
36551;SDS011;22559;54.176;12.102;2022-09-09T01:48:00;25.97;;;15.37;;
36551;SDS011;22559;54.176;12.102;2022-09-09T01:50:27;26.03;;;15.63;;
36551;SDS011;22559;54.176;12.102;2022-09-09T01:52:54;22.77;;;14.60;;
36551;SDS011;22559;54.176;12.102;2022-09-09T01:55:28;24.70;;;15.23;;
36551;SDS011;22559;54.176;12.102;2022-09-09T02:01:09;20.40;;;14.33;;
36551;SDS011;22559;54.176;12.102;2022-09-09T02:03:50;22.93;;;14.63;;
36551;SDS011;22559;54.176;12.102;2022-09-09T02:08:49;19.93;;;14.60;;
36551;SDS011;22559;54.176;12.102;2022-09-09T02:11:20;20.63;;;14.07;;
36551;SDS011;22559;54.176;12.102;2022-09-09T02:13:48;19.90;;;13.40;;
36551;SDS011;22559;54.176;12.102;2022-09-09T02:18:52;20.53;;;13.47;;
36551;SDS011;22559;54.176;12.102;2022-09-09T02:21:35;18.37;;;12.40;;
36551;SDS011;22559;54.176;12.102;2022-09-09T02:24:02;20.17;;;13.53;;
36551;SDS011;22559;54.176;12.102;2022-09-09T02:26:33;19.70;;;13.43;;
36551;SDS011;22559;54.176;12.102;2022-09-09T02:29:01;19.07;;;12.43;;
36551;SDS011;22559;54.176;12.102;2022-09-09T02:31:29;17.07;;;12.97;;
36551;SDS011;22559;54.176;12.102;2022-09-09T02:33:57;17.90;;;13.13;;
36551;SDS011;22559;54.176;12.102;2022-09-09T02:36:26;16.17;;;11.13;;
36551;SDS011;22559;54.176;12.102;2022-09-09T02:38:56;15.20;;;11.23;;
36551;SDS011;22559;54.176;12.102;2022-09-09T02:41:35;16.13;;;11.63;;
36551;SDS011;22559;54.176;12.102;2022-09-09T02:44:13;16.53;;;11.77;;
36551;SDS011;22559;54.176;12.102;2022-09-09T02:46:51;16.77;;;11.53;;
36551;SDS011;22559;54.176;12.102;2022-09-09T02:49:38;16.80;;;11.83;;
36551;SDS011;22559;54.176;12.102;2022-09-09T02:52:14;17.67;;;11.97;;
36551;SDS011;22559;54.176;12.102;2022-09-09T02:54:41;17.63;;;12.87;;
36551;SDS011;22559;54.176;12.102;2022-09-09T02:59:50;18.33;;;12.27;;
36551;SDS011;22559;54.176;12.102;2022-09-09T03:02:19;17.70;;;12.47;;
36551;SDS011;22559;54.176;12.102;2022-09-09T03:04:45;17.53;;;12.80;;
36551;SDS011;22559;54.176;12.102;2022-09-09T03:07:15;17.23;;;12.23;;
36551;SDS011;22559;54.176;12.102;2022-09-09T03:09:42;18.53;;;13.00;;
36551;SDS011;22559;54.176;12.102;2022-09-09T03:12:08;19.30;;;13.83;;
36551;SDS011;22559;54.176;12.102;2022-09-09T03:14:36;20.17;;;13.40;;
36551;SDS011;22559;54.176;12.102;2022-09-09T03:17:03;17.87;;;13.57;;
36551;SDS011;22559;54.176;12.102;2022-09-09T03:19:29;18.60;;;12.97;;
36551;SDS011;22559;54.176;12.102;2022-09-09T03:21:56;17.20;;;13.53;;
36551;SDS011;22559;54.176;12.102;2022-09-09T03:24:23;18.90;;;13.90;;
36551;SDS011;22559;54.176;12.102;2022-09-09T03:26:48;20.80;;;13.83;;
36551;SDS011;22559;54.176;12.102;2022-09-09T03:29:15;18.40;;;13.27;;
36551;SDS011;22559;54.176;12.102;2022-09-09T03:31:43;18.80;;;13.73;;
36551;SDS011;22559;54.176;12.102;2022-09-09T03:34:10;20.97;;;14.03;;
36551;SDS011;22559;54.176;12.102;2022-09-09T03:36:36;19.23;;;13.93;;
36551;SDS011;22559;54.176;12.102;2022-09-09T03:39:02;22.20;;;15.17;;
36551;SDS011;22559;54.176;12.102;2022-09-09T03:41:28;23.60;;;16.00;;
36551;SDS011;22559;54.176;12.102;2022-09-09T03:43:54;26.50;;;16.67;;
36551;SDS011;22559;54.176;12.102;2022-09-09T03:46:21;23.30;;;15.47;;
36551;SDS011;22559;54.176;12.102;2022-09-09T03:48:48;22.80;;;15.57;;
36551;SDS011;22559;54.176;12.102;2022-09-09T03:51:14;20.57;;;15.03;;
36551;SDS011;22559;54.176;12.102;2022-09-09T03:53:41;21.37;;;15.23;;
36551;SDS011;22559;54.176;12.102;2022-09-09T03:56:07;24.47;;;16.00;;
36551;SDS011;22559;54.176;12.102;2022-09-09T03:58:34;25.07;;;16.67;;
36551;SDS011;22559;54.176;12.102;2022-09-09T04:01:05;24.03;;;15.93;;
36551;SDS011;22559;54.176;12.102;2022-09-09T04:03:35;24.10;;;15.60;;
36551;SDS011;22559;54.176;12.102;2022-09-09T04:06:02;26.20;;;17.37;;
36551;SDS011;22559;54.176;12.102;2022-09-09T04:08:29;26.23;;;16.57;;
36551;SDS011;22559;54.176;12.102;2022-09-09T04:10:58;25.83;;;15.87;;
36551;SDS011;22559;54.176;12.102;2022-09-09T04:13:25;26.50;;;16.80;;
36551;SDS011;22559;54.176;12.102;2022-09-09T04:15:55;27.37;;;16.77;;
36551;SDS011;22559;54.176;12.102;2022-09-09T04:18:22;26.97;;;16.77;;
36551;SDS011;22559;54.176;12.102;2022-09-09T04:20:49;23.80;;;15.80;;
36551;SDS011;22559;54.176;12.102;2022-09-09T04:23:15;26.77;;;15.97;;
36551;SDS011;22559;54.176;12.102;2022-09-09T04:25:44;26.73;;;15.93;;
36551;SDS011;22559;54.176;12.102;2022-09-09T04:28:11;26.30;;;16.37;;
36551;SDS011;22559;54.176;12.102;2022-09-09T04:30:38;28.13;;;17.63;;
36551;SDS011;22559;54.176;12.102;2022-09-09T04:33:05;29.73;;;18.00;;
36551;SDS011;22559;54.176;12.102;2022-09-09T04:35:31;31.33;;;17.93;;
36551;SDS011;22559;54.176;12.102;2022-09-09T04:37:57;26.30;;;16.83;;
36551;SDS011;22559;54.176;12.102;2022-09-09T04:40:22;29.57;;;16.67;;
36551;SDS011;22559;54.176;12.102;2022-09-09T04:42:48;29.40;;;17.27;;
36551;SDS011;22559;54.176;12.102;2022-09-09T04:45:14;25.83;;;16.70;;
36551;SDS011;22559;54.176;12.102;2022-09-09T04:47:40;26.67;;;17.60;;
36551;SDS011;22559;54.176;12.102;2022-09-09T04:50:06;29.37;;;18.07;;
36551;SDS011;22559;54.176;12.102;2022-09-09T04:52:33;25.97;;;17.73;;
36551;SDS011;22559;54.176;12.102;2022-09-09T04:55:00;29.00;;;18.17;;
36551;SDS011;22559;54.176;12.102;2022-09-09T04:57:26;27.53;;;17.67;;
36551;SDS011;22559;54.176;12.102;2022-09-09T04:59:51;29.33;;;18.27;;
36551;SDS011;22559;54.176;12.102;2022-09-09T05:02:17;27.90;;;17.83;;
36551;SDS011;22559;54.176;12.102;2022-09-09T05:04:43;31.77;;;17.63;;
36551;SDS011;22559;54.176;12.102;2022-09-09T05:07:08;32.63;;;17.87;;
36551;SDS011;22559;54.176;12.102;2022-09-09T05:09:34;30.43;;;18.63;;
36551;SDS011;22559;54.176;12.102;2022-09-09T05:11:59;29.87;;;17.93;;
36551;SDS011;22559;54.176;12.102;2022-09-09T05:14:25;28.60;;;17.27;;
36551;SDS011;22559;54.176;12.102;2022-09-09T05:16:52;31.60;;;17.23;;
36551;SDS011;22559;54.176;12.102;2022-09-09T05:19:17;27.40;;;16.47;;
36551;SDS011;22559;54.176;12.102;2022-09-09T05:21:44;34.37;;;16.97;;
36551;SDS011;22559;54.176;12.102;2022-09-09T05:24:10;37.37;;;19.43;;
36551;SDS011;22559;54.176;12.102;2022-09-09T05:26:36;32.73;;;18.77;;
36551;SDS011;22559;54.176;12.102;2022-09-09T05:29:01;37.90;;;17.60;;
36551;SDS011;22559;54.176;12.102;2022-09-09T05:31:29;31.30;;;17.10;;
36551;SDS011;22559;54.176;12.102;2022-09-09T05:33:55;35.87;;;16.90;;
36551;SDS011;22559;54.176;12.102;2022-09-09T05:36:22;31.57;;;17.27;;
36551;SDS011;22559;54.176;12.102;2022-09-09T05:38:48;34.47;;;17.47;;
36551;SDS011;22559;54.176;12.102;2022-09-09T05:41:15;35.63;;;17.97;;
36551;SDS011;22559;54.176;12.102;2022-09-09T05:43:42;30.30;;;16.77;;
36551;SDS011;22559;54.176;12.102;2022-09-09T05:46:13;32.93;;;17.80;;
36551;SDS011;22559;54.176;12.102;2022-09-09T05:48:44;28.40;;;17.70;;
36551;SDS011;22559;54.176;12.102;2022-09-09T05:51:16;32.87;;;18.53;;
36551;SDS011;22559;54.176;12.102;2022-09-09T05:53:43;35.37;;;19.20;;
36551;SDS011;22559;54.176;12.102;2022-09-09T05:56:10;30.67;;;18.17;;
36551;SDS011;22559;54.176;12.102;2022-09-09T05:58:39;34.90;;;21.77;;
36551;SDS011;22559;54.176;12.102;2022-09-09T06:03:33;37.70;;;22.27;;
36551;SDS011;22559;54.176;12.102;2022-09-09T06:06:00;34.17;;;22.20;;
36551;SDS011;22559;54.176;12.102;2022-09-09T06:08:30;32.80;;;22.10;;
36551;SDS011;22559;54.176;12.102;2022-09-09T06:11:03;34.73;;;22.00;;
36551;SDS011;22559;54.176;12.102;2022-09-09T06:13:30;35.63;;;22.57;;
36551;SDS011;22559;54.176;12.102;2022-09-09T06:15:56;35.33;;;22.83;;
36551;SDS011;22559;54.176;12.102;2022-09-09T06:18:23;33.30;;;22.93;;
36551;SDS011;22559;54.176;12.102;2022-09-09T06:21:32;31.73;;;21.83;;
36551;SDS011;22559;54.176;12.102;2022-09-09T06:23:45;31.43;;;20.73;;
36551;SDS011;22559;54.176;12.102;2022-09-09T06:26:13;34.00;;;21.20;;
36551;SDS011;22559;54.176;12.102;2022-09-09T06:28:47;35.00;;;23.33;;
36551;SDS011;22559;54.176;12.102;2022-09-09T06:31:15;31.83;;;22.80;;
36551;SDS011;22559;54.176;12.102;2022-09-09T06:33:42;32.70;;;22.30;;
36551;SDS011;22559;54.176;12.102;2022-09-09T06:36:13;36.37;;;23.83;;
36551;SDS011;22559;54.176;12.102;2022-09-09T06:38:44;31.13;;;20.83;;
36551;SDS011;22559;54.176;12.102;2022-09-09T06:41:11;32.67;;;21.77;;
36551;SDS011;22559;54.176;12.102;2022-09-09T06:43:38;30.53;;;20.17;;
36551;SDS011;22559;54.176;12.102;2022-09-09T06:46:05;31.70;;;20.53;;
36551;SDS011;22559;54.176;12.102;2022-09-09T06:48:35;34.80;;;21.23;;
36551;SDS011;22559;54.176;12.102;2022-09-09T06:51:05;31.70;;;21.57;;
36551;SDS011;22559;54.176;12.102;2022-09-09T06:53:33;31.43;;;20.63;;
36551;SDS011;22559;54.176;12.102;2022-09-09T06:58:35;28.73;;;19.37;;
36551;SDS011;22559;54.176;12.102;2022-09-09T07:01:05;29.53;;;20.83;;
36551;SDS011;22559;54.176;12.102;2022-09-09T07:03:31;29.23;;;20.40;;
36551;SDS011;22559;54.176;12.102;2022-09-09T07:05:58;32.17;;;21.50;;
36551;SDS011;22559;54.176;12.102;2022-09-09T07:08:24;29.23;;;18.93;;
36551;SDS011;22559;54.176;12.102;2022-09-09T07:10:50;28.53;;;19.23;;
36551;SDS011;22559;54.176;12.102;2022-09-09T07:13:19;31.43;;;19.47;;
36551;SDS011;22559;54.176;12.102;2022-09-09T07:15:50;30.93;;;20.20;;
36551;SDS011;22559;54.176;12.102;2022-09-09T07:18:16;31.60;;;19.40;;
36551;SDS011;22559;54.176;12.102;2022-09-09T07:20:42;31.87;;;20.80;;
36551;SDS011;22559;54.176;12.102;2022-09-09T07:23:07;27.60;;;19.77;;
36551;SDS011;22559;54.176;12.102;2022-09-09T07:25:33;31.80;;;19.47;;
36551;SDS011;22559;54.176;12.102;2022-09-09T07:27:59;28.57;;;19.63;;
36551;SDS011;22559;54.176;12.102;2022-09-09T07:30:24;29.23;;;19.90;;
36551;SDS011;22559;54.176;12.102;2022-09-09T07:32:53;31.37;;;20.23;;
36551;SDS011;22559;54.176;12.102;2022-09-09T07:35:19;32.30;;;21.70;;
36551;SDS011;22559;54.176;12.102;2022-09-09T07:37:45;33.07;;;20.23;;
36551;SDS011;22559;54.176;12.102;2022-09-09T07:40:10;30.03;;;19.87;;
36551;SDS011;22559;54.176;12.102;2022-09-09T07:42:36;34.83;;;19.47;;
36551;SDS011;22559;54.176;12.102;2022-09-09T07:45:02;32.00;;;19.87;;
36551;SDS011;22559;54.176;12.102;2022-09-09T07:47:29;33.60;;;20.37;;
36551;SDS011;22559;54.176;12.102;2022-09-09T07:49:54;29.63;;;19.37;;
36551;SDS011;22559;54.176;12.102;2022-09-09T07:52:21;33.93;;;21.20;;
36551;SDS011;22559;54.176;12.102;2022-09-09T07:54:46;32.33;;;20.63;;
36551;SDS011;22559;54.176;12.102;2022-09-09T07:57:12;31.23;;;20.40;;
36551;SDS011;22559;54.176;12.102;2022-09-09T07:59:38;30.37;;;19.53;;
36551;SDS011;22559;54.176;12.102;2022-09-09T08:02:03;31.27;;;20.50;;
36551;SDS011;22559;54.176;12.102;2022-09-09T08:04:29;33.50;;;20.33;;
36551;SDS011;22559;54.176;12.102;2022-09-09T08:06:56;32.20;;;21.00;;
36551;SDS011;22559;54.176;12.102;2022-09-09T08:09:24;33.37;;;21.07;;
36551;SDS011;22559;54.176;12.102;2022-09-09T08:11:52;34.20;;;21.60;;
36551;SDS011;22559;54.176;12.102;2022-09-09T08:14:18;32.17;;;21.83;;
36551;SDS011;22559;54.176;12.102;2022-09-09T08:16:44;30.53;;;21.70;;
36551;SDS011;22559;54.176;12.102;2022-09-09T08:19:11;31.07;;;20.40;;
36551;SDS011;22559;54.176;12.102;2022-09-09T08:21:40;31.53;;;22.83;;
36551;SDS011;22559;54.176;12.102;2022-09-09T08:24:07;33.27;;;22.00;;
36551;SDS011;22559;54.176;12.102;2022-09-09T08:26:34;32.20;;;20.47;;
36551;SDS011;22559;54.176;12.102;2022-09-09T08:29:07;30.73;;;19.97;;
36551;SDS011;22559;54.176;12.102;2022-09-09T08:31:38;28.87;;;20.10;;
36551;SDS011;22559;54.176;12.102;2022-09-09T08:34:06;28.30;;;20.13;;
36551;SDS011;22559;54.176;12.102;2022-09-09T08:36:34;28.97;;;20.97;;
36551;SDS011;22559;54.176;12.102;2022-09-09T08:39:02;27.97;;;19.40;;
36551;SDS011;22559;54.176;12.102;2022-09-09T08:55:33;31.33;;;21.03;;
36551;SDS011;22559;54.176;12.102;2022-09-09T08:58:20;30.83;;;20.73;;
36551;SDS011;22559;54.176;12.102;2022-09-09T09:00:56;25.50;;;18.40;;
36551;SDS011;22559;54.176;12.102;2022-09-09T09:09:01;23.63;;;17.93;;
36551;SDS011;22559;54.176;12.102;2022-09-09T09:12:06;26.17;;;18.33;;
36551;SDS011;22559;54.176;12.102;2022-09-09T09:14:28;27.35;;;18.23;;
36551;SDS011;22559;54.176;12.102;2022-09-09T09:19:29;25.80;;;18.17;;
36551;SDS011;22559;54.176;12.102;2022-09-09T09:21:59;27.23;;;18.43;;
36551;SDS011;22559;54.176;12.102;2022-09-09T09:25:05;26.07;;;17.87;;
36551;SDS011;22559;54.176;12.102;2022-09-09T09:30:39;23.63;;;17.67;;
36551;SDS011;22559;54.176;12.102;2022-09-09T09:33:24;23.87;;;17.30;;
36551;SDS011;22559;54.176;12.102;2022-09-09T09:35:57;23.92;;;17.52;;
36551;SDS011;22559;54.176;12.102;2022-09-09T09:38:25;27.65;;;20.52;;
36551;SDS011;22559;54.176;12.102;2022-09-09T09:40:53;21.60;;;16.45;;
36551;SDS011;22559;54.176;12.102;2022-09-09T09:45:54;26.35;;;17.10;;
36551;SDS011;22559;54.176;12.102;2022-09-09T09:48:22;23.50;;;17.08;;
36551;SDS011;22559;54.176;12.102;2022-09-09T09:50:49;21.88;;;15.55;;
36551;SDS011;22559;54.176;12.102;2022-09-09T09:53:20;19.83;;;15.80;;
36551;SDS011;22559;54.176;12.102;2022-09-09T09:55:59;20.75;;;14.75;;
36551;SDS011;22559;54.176;12.102;2022-09-09T09:58:30;19.70;;;14.95;;
36551;SDS011;22559;54.176;12.102;2022-09-09T10:00:59;18.90;;;14.27;;
36551;SDS011;22559;54.176;12.102;2022-09-09T10:03:29;17.52;;;13.85;;
36551;SDS011;22559;54.176;12.102;2022-09-09T10:05:57;16.90;;;13.07;;
36551;SDS011;22559;54.176;12.102;2022-09-09T10:08:23;18.30;;;14.55;;
36551;SDS011;22559;54.176;12.102;2022-09-09T10:11:02;17.17;;;13.63;;
36551;SDS011;22559;54.176;12.102;2022-09-09T10:19:31;15.98;;;12.45;;
36551;SDS011;22559;54.176;12.102;2022-09-09T10:22:03;16.90;;;10.82;;
36551;SDS011;22559;54.176;12.102;2022-09-09T10:24:39;11.68;;;10.48;;
36551;SDS011;22559;54.176;12.102;2022-09-09T10:28:30;14.32;;;11.68;;
36551;SDS011;22559;54.176;12.102;2022-09-09T10:33:37;13.90;;;11.10;;
36551;SDS011;22559;54.176;12.102;2022-09-09T10:38:47;13.05;;;11.20;;
36551;SDS011;22559;54.176;12.102;2022-09-09T10:41:40;12.02;;;10.77;;
36551;SDS011;22559;54.176;12.102;2022-09-09T10:50:28;11.10;;;9.48;;
36551;SDS011;22559;54.176;12.102;2022-09-09T10:53:35;12.02;;;9.32;;
36551;SDS011;22559;54.176;12.102;2022-09-09T10:56:15;10.75;;;9.68;;
36551;SDS011;22559;54.176;12.102;2022-09-09T11:01:34;8.98;;;6.63;;
36551;SDS011;22559;54.176;12.102;2022-09-09T11:04:13;8.75;;;7.63;;
36551;SDS011;22559;54.176;12.102;2022-09-09T11:06:44;10.18;;;9.05;;
36551;SDS011;22559;54.176;12.102;2022-09-09T11:09:17;8.15;;;7.40;;
36551;SDS011;22559;54.176;12.102;2022-09-09T11:11:53;11.18;;;7.57;;
36551;SDS011;22559;54.176;12.102;2022-09-09T11:16:58;8.60;;;7.22;;
36551;SDS011;22559;54.176;12.102;2022-09-09T11:19:35;8.15;;;7.35;;
36551;SDS011;22559;54.176;12.102;2022-09-09T11:22:51;8.82;;;7.38;;
36551;SDS011;22559;54.176;12.102;2022-09-09T11:24:58;10.18;;;8.23;;
36551;SDS011;22559;54.176;12.102;2022-09-09T11:27:35;13.23;;;10.75;;
36551;SDS011;22559;54.176;12.102;2022-09-09T11:30:22;8.18;;;7.32;;
36551;SDS011;22559;54.176;12.102;2022-09-09T11:40:41;6.05;;;5.45;;
36551;SDS011;22559;54.176;12.102;2022-09-09T11:46:06;6.68;;;5.05;;
36551;SDS011;22559;54.176;12.102;2022-09-09T11:51:02;6.85;;;5.10;;
36551;SDS011;22559;54.176;12.102;2022-09-09T11:53:35;7.38;;;6.05;;
36551;SDS011;22559;54.176;12.102;2022-09-09T11:56:25;6.30;;;5.70;;
36551;SDS011;22559;54.176;12.102;2022-09-09T11:59:06;7.90;;;5.57;;
36551;SDS011;22559;54.176;12.102;2022-09-09T12:01:50;6.22;;;4.68;;
36551;SDS011;22559;54.176;12.102;2022-09-09T12:09:49;7.28;;;6.57;;
36551;SDS011;22559;54.176;12.102;2022-09-09T12:17:22;7.28;;;5.75;;
36551;SDS011;22559;54.176;12.102;2022-09-09T12:19:59;7.50;;;6.03;;
36551;SDS011;22559;54.176;12.102;2022-09-09T12:33:43;5.13;;;4.65;;
36551;SDS011;22559;54.176;12.102;2022-09-09T12:36:13;5.80;;;4.68;;
36551;SDS011;22559;54.176;12.102;2022-09-09T12:38:43;6.93;;;5.22;;
36551;SDS011;22559;54.176;12.102;2022-09-09T12:41:22;5.18;;;4.68;;
36551;SDS011;22559;54.176;12.102;2022-09-09T12:43:50;5.63;;;4.68;;
36551;SDS011;22559;54.176;12.102;2022-09-09T12:46:20;6.82;;;4.18;;
36551;SDS011;22559;54.176;12.102;2022-09-09T12:48:56;8.57;;;4.10;;
36551;SDS011;22559;54.176;12.102;2022-09-09T12:51:28;3.90;;;3.53;;
36551;SDS011;22559;54.176;12.102;2022-09-09T12:53:55;3.83;;;3.40;;
36551;SDS011;22559;54.176;12.102;2022-09-09T12:56:27;3.47;;;3.20;;
36551;SDS011;22559;54.176;12.102;2022-09-09T12:58:56;3.75;;;3.45;;
36551;SDS011;22559;54.176;12.102;2022-09-09T13:01:30;3.47;;;3.17;;
36551;SDS011;22559;54.176;12.102;2022-09-09T13:03:58;4.18;;;3.50;;
36551;SDS011;22559;54.176;12.102;2022-09-09T13:06:28;5.05;;;3.35;;
36551;SDS011;22559;54.176;12.102;2022-09-09T13:08:55;3.47;;;3.15;;
36551;SDS011;22559;54.176;12.102;2022-09-09T13:14:04;3.67;;;2.65;;
36551;SDS011;22559;54.176;12.102;2022-09-09T13:16:32;3.88;;;2.83;;
36551;SDS011;22559;54.176;12.102;2022-09-09T13:19:00;3.90;;;2.85;;
36551;SDS011;22559;54.176;12.102;2022-09-09T13:21:33;4.10;;;2.95;;
36551;SDS011;22559;54.176;12.102;2022-09-09T13:23:59;3.55;;;3.25;;
36551;SDS011;22559;54.176;12.102;2022-09-09T13:26:28;4.93;;;3.65;;
36551;SDS011;22559;54.176;12.102;2022-09-09T13:28:55;7.05;;;3.75;;
36551;SDS011;22559;54.176;12.102;2022-09-09T13:31:33;3.47;;;3.17;;
36551;SDS011;22559;54.176;12.102;2022-09-09T13:34:10;3.47;;;3.17;;
36551;SDS011;22559;54.176;12.102;2022-09-09T13:36:52;3.83;;;3.50;;
36551;SDS011;22559;54.176;12.102;2022-09-09T13:39:23;5.43;;;3.50;;
36551;SDS011;22559;54.176;12.102;2022-09-09T13:41:49;5.03;;;3.65;;
36551;SDS011;22559;54.176;12.102;2022-09-09T13:44:25;5.50;;;3.22;;
36551;SDS011;22559;54.176;12.102;2022-09-09T13:47:06;3.40;;;3.10;;
36551;SDS011;22559;54.176;12.102;2022-09-09T13:49:46;5.55;;;3.55;;
36551;SDS011;22559;54.176;12.102;2022-09-09T13:52:13;3.55;;;3.22;;
36551;SDS011;22559;54.176;12.102;2022-09-09T13:54:42;3.92;;;3.63;;
36551;SDS011;22559;54.176;12.102;2022-09-09T13:57:49;3.83;;;3.42;;
36551;SDS011;22559;54.176;12.102;2022-09-09T14:00:00;3.53;;;3.20;;
36551;SDS011;22559;54.176;12.102;2022-09-09T14:02:26;5.55;;;3.03;;
36551;SDS011;22559;54.176;12.102;2022-09-09T14:04:51;4.53;;;2.80;;
36551;SDS011;22559;54.176;12.102;2022-09-09T14:07:20;5.32;;;3.42;;
36551;SDS011;22559;54.176;12.102;2022-09-09T14:09:46;6.68;;;3.28;;
36551;SDS011;22559;54.176;12.102;2022-09-09T14:12:14;4.85;;;2.53;;
36551;SDS011;22559;54.176;12.102;2022-09-09T14:14:41;3.63;;;2.75;;
36551;SDS011;22559;54.176;12.102;2022-09-09T14:17:08;2.92;;;2.50;;
36551;SDS011;22559;54.176;12.102;2022-09-09T14:19:33;3.40;;;2.40;;
36551;SDS011;22559;54.176;12.102;2022-09-09T14:21:59;3.47;;;2.40;;
36551;SDS011;22559;54.176;12.102;2022-09-09T14:24:26;4.68;;;2.40;;
36551;SDS011;22559;54.176;12.102;2022-09-09T14:26:52;4.75;;;2.75;;
36551;SDS011;22559;54.176;12.102;2022-09-09T14:29:18;3.60;;;2.92;;
36551;SDS011;22559;54.176;12.102;2022-09-09T14:31:44;3.05;;;2.80;;
36551;SDS011;22559;54.176;12.102;2022-09-09T14:34:10;3.53;;;2.92;;
36551;SDS011;22559;54.176;12.102;2022-09-09T14:36:36;6.22;;;3.85;;
36551;SDS011;22559;54.176;12.102;2022-09-09T14:39:03;5.28;;;3.85;;
36551;SDS011;22559;54.176;12.102;2022-09-09T14:41:29;5.85;;;4.35;;
36551;SDS011;22559;54.176;12.102;2022-09-09T14:43:55;5.07;;;4.57;;
36551;SDS011;22559;54.176;12.102;2022-09-09T14:46:21;5.35;;;3.92;;
36551;SDS011;22559;54.176;12.102;2022-09-09T14:48:47;5.68;;;4.00;;
36551;SDS011;22559;54.176;12.102;2022-09-09T14:51:19;4.22;;;2.65;;
36551;SDS011;22559;54.176;12.102;2022-09-09T14:53:53;2.13;;;2.03;;
36551;SDS011;22559;54.176;12.102;2022-09-09T14:56:24;2.88;;;1.80;;
36551;SDS011;22559;54.176;12.102;2022-09-09T14:58:54;3.88;;;1.30;;
36551;SDS011;22559;54.176;12.102;2022-09-09T15:01:21;1.30;;;1.17;;
36551;SDS011;22559;54.176;12.102;2022-09-09T15:03:57;2.78;;;1.17;;
36551;SDS011;22559;54.176;12.102;2022-09-09T15:06:29;1.23;;;1.10;;
36551;SDS011;22559;54.176;12.102;2022-09-09T15:08:56;1.73;;;1.45;;
36551;SDS011;22559;54.176;12.102;2022-09-09T15:11:23;1.27;;;1.17;;
36551;SDS011;22559;54.176;12.102;2022-09-09T15:13:51;2.83;;;1.45;;
36551;SDS011;22559;54.176;12.102;2022-09-09T15:16:18;2.47;;;1.48;;
36551;SDS011;22559;54.176;12.102;2022-09-09T15:18:45;1.48;;;1.40;;
36551;SDS011;22559;54.176;12.102;2022-09-09T15:21:11;1.95;;;1.38;;
36551;SDS011;22559;54.176;12.102;2022-09-09T15:23:39;1.40;;;1.30;;
36551;SDS011;22559;54.176;12.102;2022-09-09T15:26:05;1.60;;;1.40;;
36551;SDS011;22559;54.176;12.102;2022-09-09T15:28:31;1.30;;;1.20;;
36551;SDS011;22559;54.176;12.102;2022-09-09T15:31:04;1.20;;;1.10;;
36551;SDS011;22559;54.176;12.102;2022-09-09T15:33:48;1.20;;;1.20;;
36551;SDS011;22559;54.176;12.102;2022-09-09T15:36:36;2.60;;;1.45;;
36551;SDS011;22559;54.176;12.102;2022-09-09T15:39:05;1.55;;;1.50;;
36551;SDS011;22559;54.176;12.102;2022-09-09T15:41:33;2.30;;;1.70;;
36551;SDS011;22559;54.176;12.102;2022-09-09T15:43:59;4.25;;;1.60;;
36551;SDS011;22559;54.176;12.102;2022-09-09T15:46:32;3.30;;;1.60;;
36551;SDS011;22559;54.176;12.102;2022-09-09T15:49:09;2.95;;;1.77;;
36551;SDS011;22559;54.176;12.102;2022-09-09T15:51:37;3.58;;;1.65;;
36551;SDS011;22559;54.176;12.102;2022-09-09T15:54:03;1.67;;;1.50;;
36551;SDS011;22559;54.176;12.102;2022-09-09T15:56:30;4.90;;;2.00;;
36551;SDS011;22559;54.176;12.102;2022-09-09T15:58:56;3.80;;;1.90;;
36551;SDS011;22559;54.176;12.102;2022-09-09T16:01:22;1.67;;;1.52;;
36551;SDS011;22559;54.176;12.102;2022-09-09T16:03:48;2.58;;;1.90;;
36551;SDS011;22559;54.176;12.102;2022-09-09T16:06:17;2.53;;;1.63;;
36551;SDS011;22559;54.176;12.102;2022-09-09T16:08:46;4.10;;;2.00;;
36551;SDS011;22559;54.176;12.102;2022-09-09T16:11:16;3.45;;;1.80;;
36551;SDS011;22559;54.176;12.102;2022-09-09T16:13:48;4.03;;;2.08;;
36551;SDS011;22559;54.176;12.102;2022-09-09T16:16:15;3.58;;;2.05;;
36551;SDS011;22559;54.176;12.102;2022-09-09T16:18:43;2.72;;;2.20;;
36551;SDS011;22559;54.176;12.102;2022-09-09T16:21:14;3.08;;;2.20;;
36551;SDS011;22559;54.176;12.102;2022-09-09T16:23:41;2.70;;;2.20;;
36551;SDS011;22559;54.176;12.102;2022-09-09T16:26:08;2.47;;;2.28;;
36551;SDS011;22559;54.176;12.102;2022-09-09T16:28:36;2.70;;;2.45;;
36551;SDS011;22559;54.176;12.102;2022-09-09T16:31:09;4.07;;;2.47;;
36551;SDS011;22559;54.176;12.102;2022-09-09T16:33:39;3.75;;;2.55;;
36551;SDS011;22559;54.176;12.102;2022-09-09T16:36:05;5.22;;;2.88;;
36551;SDS011;22559;54.176;12.102;2022-09-09T16:38:32;5.90;;;2.53;;
36551;SDS011;22559;54.176;12.102;2022-09-09T16:41:00;2.45;;;2.25;;
36551;SDS011;22559;54.176;12.102;2022-09-09T16:43:26;3.22;;;2.80;;
36551;SDS011;22559;54.176;12.102;2022-09-09T16:45:52;5.60;;;2.50;;
36551;SDS011;22559;54.176;12.102;2022-09-09T16:48:17;8.85;;;3.33;;
36551;SDS011;22559;54.176;12.102;2022-09-09T16:50:43;3.28;;;3.08;;
36551;SDS011;22559;54.176;12.102;2022-09-09T16:53:09;4.05;;;3.28;;
36551;SDS011;22559;54.176;12.102;2022-09-09T16:55:39;3.67;;;3.38;;